Terminal Aerodrome Forecast
Issued by NWS Albany, NY

Home | Current Version | Previous Version | Text Only | Print | Product List | Glossary On
Versions: 1 2 3 4 5 6 7 8 9 10 11 12 13 14 15 16 17 18 19
000
FTUS41 KALY 252334
TAFGFL
TAF
KGFL 252334Z 2600/2624 18005KT P6SM VCSH SCT060 BKN120
     FM260900 19003KT P6SM BKN060 OVC120
     FM261400 20008KT P6SM SCT060 SCT120
     FM262200 20008KT P6SM VCSH BKN060=

USA.gov is the U.S. government's official web portal to all federal, state and local government web resources and services.